createdAt,value
2019-03-10T00:01:13.403Z,99847.97
2019-03-10T00:03:45.398Z,99853.60
2019-03-10T00:06:17.647Z,99866.88
2019-03-10T00:08:49.388Z,99866.98
2019-03-10T00:11:22.104Z,99873.48
2019-03-10T00:13:53.726Z,99881.98
2019-03-10T00:16:25.496Z,99895.21
2019-03-10T00:18:57.941Z,99933.28
2019-03-10T00:21:29.714Z,99924.58
2019-03-10T00:24:01.470Z,99922.75
2019-03-10T00:26:33.734Z,99932.02
2019-03-10T00:29:05.352Z,99944.97
2019-03-10T00:31:36.754Z,99942.86
2019-03-10T00:34:09.067Z,99960.34
2019-03-10T00:36:40.841Z,99954.95
2019-03-10T00:39:16.036Z,99960.93
2019-03-10T00:41:51.048Z,99964.14
2019-03-10T00:44:25.708Z,99969.08
2019-03-10T00:47:00.842Z,99980.06
2019-03-10T00:49:35.893Z,99977.66
2019-03-10T00:52:11.055Z,99979.13
2019-03-10T00:54:43.066Z,99987.28
2019-03-10T00:57:14.159Z,99982.75
2019-03-10T00:59:46.025Z,99997.94
2019-03-10T01:02:17.151Z,100000.23
2019-03-10T01:04:48.296Z,100013.02
2019-03-10T01:07:19.055Z,100015.52
2019-03-10T01:09:50.013Z,100019.80
2019-03-10T01:12:21.183Z,100022.56
2019-03-10T01:14:52.663Z,100028.28
2019-03-10T01:17:23.564Z,100021.35
2019-03-10T01:19:54.609Z,100028.13
2019-03-10T01:22:25.183Z,100029.68
2019-03-10T01:24:56.532Z,100026.84
2019-03-10T01:27:27.151Z,100039.41
2019-03-10T01:29:59.644Z,100039.41
2019-03-10T01:32:35.350Z,100031.38
2019-03-10T01:35:10.490Z,100033.66
2019-03-10T01:37:41.808Z,100035.06
2019-03-10T01:40:12.500Z,100020.88
2019-03-10T01:42:43.405Z,100027.95
2019-03-10T01:45:14.377Z,100037.05
2019-03-10T01:47:45.180Z,100021.57
2019-03-10T01:50:16.369Z,100026.44
2019-03-10T01:52:47.160Z,100017.52
2019-03-10T01:55:18.301Z,100026.14
2019-03-10T01:57:48.954Z,100027.84
2019-03-10T02:00:19.814Z,100028.94
2019-03-10T02:02:50.759Z,100020.13
2019-03-10T02:05:21.433Z,100023.78
2019-03-10T02:07:52.318Z,100022.90
2019-03-10T02:10:22.964Z,100026.18
2019-03-10T02:12:54.843Z,100041.84
2019-03-10T02:15:26.071Z,100030.34
2019-03-10T02:17:57.077Z,100022.90
2019-03-10T02:20:27.716Z,100030.64
2019-03-10T02:22:59.363Z,100031.34
2019-03-10T02:25:30.202Z,100044.23
2019-03-10T02:28:01.277Z,100048.11
2019-03-10T02:30:32.117Z,100054.08
2019-03-10T02:33:03.056Z,100045.13
2019-03-10T02:35:34.046Z,100042.88
2019-03-10T02:38:05.077Z,100038.89
2019-03-10T02:40:35.861Z,100035.57
2019-03-10T02:43:08.345Z,100034.69
2019-03-10T02:45:39.629Z,100032.50
2019-03-10T02:48:10.809Z,100031.44
2019-03-10T02:50:41.884Z,100031.65
2019-03-10T02:53:12.935Z,100036.62
2019-03-10T02:55:44.136Z,100024.83
2019-03-10T02:58:15.060Z,100023.67
2019-03-10T03:00:45.800Z,100015.27
2019-03-10T03:03:16.743Z,100019.64
2019-03-10T03:05:47.826Z,100023.31
2019-03-10T03:08:18.815Z,100022.34
2019-03-10T03:10:49.767Z,100040.30
2019-03-10T03:13:21.207Z,100029.92
2019-03-10T03:15:52.144Z,100034.34
2019-03-10T03:18:23.063Z,100028.30
2019-03-10T03:20:53.775Z,100026.53
2019-03-10T03:23:24.706Z,100023.36
2019-03-10T03:25:55.682Z,100022.47
2019-03-10T03:28:26.535Z,100030.50
2019-03-10T03:30:57.542Z,100038.15
2019-03-10T03:33:28.766Z,100034.69
2019-03-10T03:36:02.831Z,100046.36
2019-03-10T03:38:37.302Z,100052.61
2019-03-10T03:41:11.223Z,100047.05
2019-03-10T03:43:42.332Z,100052.34
2019-03-10T03:46:13.291Z,100051.86
2019-03-10T03:48:44.309Z,100058.30
2019-03-10T03:51:15.130Z,100073.25
2019-03-10T03:53:46.044Z,100064.02
2019-03-10T03:56:17.104Z,100060.67
2019-03-10T03:58:47.880Z,100058.17
2019-03-10T04:01:20.404Z,100063.03
2019-03-10T04:03:51.099Z,100059.45
2019-03-10T04:06:21.965Z,100058.96
2019-03-10T04:08:53.018Z,100047.98
2019-03-10T04:11:23.896Z,100049.77
2019-03-10T04:13:54.907Z,100039.86
2019-03-10T04:16:25.634Z,100028.47
2019-03-10T04:18:56.735Z,100037.18
2019-03-10T04:21:28.495Z,100022.12
2019-03-10T04:23:59.911Z,100018.38
2019-03-10T04:26:31.971Z,100017.78
2019-03-10T04:29:02.926Z,100013.11
2019-03-10T04:31:33.526Z,100008.38
2019-03-10T04:34:04.809Z,100001.86
2019-03-10T04:36:35.679Z,100003.64
2019-03-10T04:39:06.830Z,100007.09
2019-03-10T04:41:38.081Z,100006.42
2019-03-10T04:44:09.026Z,100006.63
2019-03-10T04:46:40.121Z,100011.46
2019-03-10T04:49:11.061Z,100012.34
2019-03-10T04:51:41.944Z,100010.09
2019-03-10T04:54:13.930Z,100009.69
2019-03-10T04:56:46.405Z,100003.74
2019-03-10T04:59:17.604Z,100013.55
2019-03-10T05:01:48.546Z,100013.84
2019-03-10T05:04:19.841Z,100019.80
2019-03-10T05:06:50.850Z,100018.99
2019-03-10T05:09:21.844Z,100027.44
2019-03-10T05:11:52.718Z,100026.84
2019-03-10T05:14:23.923Z,100037.34
2019-03-10T05:16:54.915Z,100033.47
2019-03-10T05:19:25.849Z,100027.44
2019-03-10T05:21:56.485Z,100032.79
2019-03-10T05:24:27.463Z,100029.30
2019-03-10T05:26:58.240Z,100035.16
2019-03-10T05:29:29.089Z,100039.59
2019-03-10T05:32:00.065Z,100038.22
2019-03-10T05:34:30.926Z,100037.22
2019-03-10T05:37:02.155Z,100032.38
2019-03-10T05:39:34.227Z,100046.63
2019-03-10T05:42:05.291Z,100033.35
2019-03-10T05:44:36.583Z,100034.16
2019-03-10T05:47:07.355Z,100035.16
2019-03-10T05:49:39.277Z,100035.52
2019-03-10T05:52:11.035Z,100038.30
2019-03-10T05:54:42.189Z,100032.06
2019-03-10T05:57:13.688Z,100016.53
2019-03-10T05:59:44.632Z,100018.02
2019-03-10T06:02:15.360Z,100019.20
2019-03-10T06:04:46.421Z,100019.11
2019-03-10T06:07:17.500Z,100023.37
2019-03-10T06:09:48.203Z,100025.55
2019-03-10T06:12:19.106Z,100022.17
2019-03-10T06:14:50.101Z,100025.95
2019-03-10T06:17:21.591Z,100013.84
2019-03-10T06:19:52.472Z,100023.94
2019-03-10T06:22:23.359Z,100022.28
2019-03-10T06:24:54.355Z,100025.14
2019-03-10T06:27:26.410Z,100030.20
2019-03-10T06:29:57.150Z,100016.72
2019-03-10T06:32:28.208Z,100021.33
2019-03-10T06:34:59.140Z,100016.27
2019-03-10T06:37:29.983Z,100013.74
2019-03-10T06:40:01.022Z,100013.70
2019-03-10T06:42:32.142Z,100021.72
2019-03-10T06:45:03.554Z,100010.27
2019-03-10T06:47:34.967Z,100020.16
2019-03-10T06:50:09.184Z,100018.42
2019-03-10T06:52:40.187Z,100025.14
2019-03-10T06:55:11.546Z,100030.59
2019-03-10T06:57:42.929Z,100018.84
2019-03-10T07:00:14.789Z,100019.69
2019-03-10T07:02:45.282Z,100025.22
2019-03-10T07:05:15.941Z,100020.61
2019-03-10T07:07:47.929Z,100031.34
2019-03-10T07:10:18.727Z,100020.97
2019-03-10T07:12:50.498Z,100012.38
2019-03-10T07:15:21.740Z,100023.17
2019-03-10T07:17:53.023Z,100009.67
2019-03-10T07:20:23.936Z,100018.14
2019-03-10T07:22:54.639Z,100007.36
2019-03-10T07:25:25.881Z,100008.66
2019-03-10T07:27:59.021Z,100010.81
2019-03-10T07:30:32.005Z,100001.03
2019-03-10T07:33:04.624Z,99994.67
2019-03-10T07:35:37.403Z,99996.92
2019-03-10T07:38:10.756Z,99993.91
2019-03-10T07:40:44.382Z,100007.89
2019-03-10T07:43:17.353Z,99999.03
2019-03-10T07:45:49.556Z,99997.03
2019-03-10T07:48:21.745Z,99997.61
2019-03-10T07:50:53.895Z,99996.25
2019-03-10T07:53:26.680Z,100000.06
2019-03-10T07:56:01.349Z,99987.27
2019-03-10T07:58:34.084Z,99983.73
2019-03-10T08:01:06.735Z,99988.63
2019-03-10T08:03:39.451Z,99979.50
2019-03-10T08:06:11.409Z,99980.39
2019-03-10T08:08:43.436Z,99986.41
2019-03-10T08:11:15.447Z,99978.40
2019-03-10T08:13:47.979Z,99965.70
2019-03-10T08:16:19.990Z,99967.48
2019-03-10T08:18:52.398Z,99957.30
2019-03-10T08:21:24.545Z,99950.17
2019-03-10T08:23:56.811Z,99950.02
2019-03-10T08:26:28.851Z,99947.31
2019-03-10T08:29:01.094Z,99937.94
2019-03-10T08:31:33.093Z,99940.97
2019-03-10T08:34:05.242Z,99938.54
2019-03-10T08:36:37.399Z,99947.19
2019-03-10T08:39:07.712Z,99924.83
2019-03-10T08:41:39.713Z,99929.95
2019-03-10T08:44:11.789Z,99928.81
2019-03-10T08:46:43.805Z,99924.87
2019-03-10T08:49:15.931Z,99916.98
2019-03-10T08:51:48.040Z,99916.05
2019-03-10T08:54:20.182Z,99914.70
2019-03-10T08:56:56.043Z,99903.45
2019-03-10T08:59:31.374Z,99907.19
2019-03-10T09:02:01.601Z,99897.86
2019-03-10T09:04:34.380Z,99895.89
2019-03-10T09:07:06.705Z,99902.87
2019-03-10T09:09:38.911Z,99892.69
2019-03-10T09:12:11.250Z,99893.16
2019-03-10T09:14:43.644Z,99878.75
2019-03-10T09:17:15.744Z,99872.09
2019-03-10T09:19:47.785Z,99857.09
2019-03-10T09:22:19.934Z,99849.74
2019-03-10T09:24:52.459Z,99877.16
2019-03-10T09:27:24.738Z,99855.95
2019-03-10T09:29:54.923Z,99847.23
2019-03-10T09:32:26.995Z,99840.39
2019-03-10T09:34:59.039Z,99844.64
2019-03-10T09:37:31.103Z,99831.30
2019-03-10T09:40:03.187Z,99824.20
2019-03-10T09:42:39.388Z,99822.75
2019-03-10T09:45:10.171Z,99812.98
2019-03-10T09:47:43.340Z,99810.95
2019-03-10T09:50:15.429Z,99821.36
2019-03-10T09:52:47.448Z,99816.35
2019-03-10T09:55:20.419Z,99803.05
2019-03-10T09:57:52.837Z,99808.78
2019-03-10T10:00:28.165Z,99816.97
2019-03-10T10:03:00.700Z,99822.06
2019-03-10T10:05:34.510Z,99810.07
2019-03-10T10:08:08.065Z,99805.23
2019-03-10T10:10:40.534Z,99812.27
2019-03-10T10:13:13.155Z,99814.41
2019-03-10T10:15:45.721Z,99822.83
2019-03-10T10:18:16.445Z,99813.00
2019-03-10T10:20:49.449Z,99822.79
2019-03-10T10:23:21.951Z,99819.03
2019-03-10T10:25:54.579Z,99807.34
2019-03-10T10:28:28.222Z,99811.58
2019-03-10T10:31:01.818Z,99806.36
2019-03-10T10:33:34.559Z,99809.70
2019-03-10T10:36:07.297Z,99805.89
2019-03-10T10:38:40.998Z,99799.12
2019-03-10T10:41:13.778Z,99801.25
2019-03-10T10:43:46.843Z,99805.03
2019-03-10T10:46:19.414Z,99795.72
2019-03-10T10:48:52.415Z,99790.32
2019-03-10T10:51:24.639Z,99783.67
2019-03-10T10:53:57.154Z,99781.70
2019-03-10T10:56:27.871Z,99783.09
2019-03-10T10:59:00.470Z,99781.45
2019-03-10T11:01:32.474Z,99776.02
2019-03-10T11:04:04.888Z,99768.92
2019-03-10T11:06:37.758Z,99763.34
2019-03-10T11:09:11.275Z,99753.38
2019-03-10T11:11:43.672Z,99746.70
2019-03-10T11:14:16.575Z,99743.73
2019-03-10T11:16:49.082Z,99740.84
2019-03-10T11:19:21.880Z,99746.55
2019-03-10T11:21:54.341Z,99733.36
2019-03-10T11:24:26.708Z,99730.77
2019-03-10T11:26:57.855Z,99722.06
2019-03-10T11:29:30.377Z,99722.50
2019-03-10T11:32:03.297Z,99713.11
2019-03-10T11:34:35.797Z,99708.43
2019-03-10T11:37:07.922Z,99712.69
2019-03-10T11:39:38.068Z,99700.38
2019-03-10T11:42:10.186Z,99702.20
2019-03-10T11:44:42.287Z,99692.77
2019-03-10T11:47:15.587Z,99689.22
2019-03-10T11:49:47.742Z,99682.33
2019-03-10T11:52:20.170Z,99676.91
2019-03-10T11:54:52.267Z,99673.84
2019-03-10T11:57:25.427Z,99668.45
2019-03-10T11:59:55.628Z,99662.92
2019-03-10T12:02:25.811Z,99661.88
2019-03-10T12:04:57.931Z,99660.28
2019-03-10T12:07:30.095Z,99661.50
2019-03-10T12:10:00.491Z,99652.53
2019-03-10T12:12:32.427Z,99647.72
2019-03-10T12:15:03.087Z,99645.61
2019-03-10T12:17:35.166Z,99634.87
2019-03-10T12:20:09.002Z,99630.72
2019-03-10T12:22:39.728Z,99629.80
2019-03-10T12:25:12.320Z,99630.22
2019-03-10T12:27:43.265Z,99623.22
2019-03-10T12:30:15.548Z,99612.98
2019-03-10T12:32:47.083Z,99608.02
2019-03-10T12:35:17.599Z,99600.63
2019-03-10T12:37:48.240Z,99589.20
2019-03-10T12:40:18.839Z,99582.06
2019-03-10T12:42:49.256Z,99569.24
2019-03-10T12:45:19.849Z,99562.33
2019-03-10T12:47:50.290Z,99554.53
2019-03-10T12:50:20.873Z,99548.70
2019-03-10T12:52:51.376Z,99545.75
2019-03-10T12:55:21.848Z,99537.42
2019-03-10T12:57:52.288Z,99538.52
2019-03-10T13:00:22.976Z,99538.38
2019-03-10T13:02:53.680Z,99536.13
2019-03-10T13:05:24.409Z,99533.77
2019-03-10T13:07:54.919Z,99516.11
2019-03-10T13:10:25.570Z,99511.44
2019-03-10T13:12:56.679Z,99508.59
2019-03-10T13:15:28.902Z,99509.19
2019-03-10T13:17:59.544Z,99502.34
2019-03-10T13:20:30.648Z,99499.19
2019-03-10T13:23:01.685Z,99499.53
2019-03-10T13:25:32.875Z,99510.00
2019-03-10T13:28:04.210Z,99503.53
2019-03-10T13:30:35.097Z,99499.34
2019-03-10T13:33:05.669Z,99497.66
2019-03-10T13:35:43.572Z,99507.30
2019-03-10T13:38:14.823Z,99499.48
2019-03-10T13:40:45.945Z,99498.69
2019-03-10T13:43:16.895Z,99499.86
2019-03-10T13:45:48.712Z,99497.11
2019-03-10T13:48:19.874Z,99493.78
2019-03-10T13:50:50.915Z,99493.36
2019-03-10T13:53:22.185Z,99490.20
2019-03-10T13:55:53.110Z,99491.42
2019-03-10T13:58:24.093Z,99484.11
2019-03-10T14:00:54.853Z,99483.30
2019-03-10T14:03:25.810Z,99471.77
2019-03-10T14:05:57.115Z,99463.74
2019-03-10T14:08:28.194Z,99453.81
2019-03-10T14:10:59.446Z,99448.74
2019-03-10T14:13:30.238Z,99441.19
2019-03-10T14:16:01.559Z,99435.50
2019-03-10T14:18:32.678Z,99425.98
2019-03-10T14:21:03.762Z,99421.37
2019-03-10T14:23:35.298Z,99419.38
2019-03-10T14:26:06.539Z,99415.36
2019-03-10T14:28:38.132Z,99409.47
2019-03-10T14:31:09.075Z,99402.91
2019-03-10T14:33:40.644Z,99405.92
2019-03-10T14:36:11.477Z,99406.25
2019-03-10T14:38:42.773Z,99400.57
2019-03-10T14:41:14.026Z,99398.43
2019-03-10T14:43:45.632Z,99397.41
2019-03-10T14:46:17.114Z,99389.22
2019-03-10T14:48:48.166Z,99374.28
2019-03-10T14:51:19.150Z,99374.33
2019-03-10T14:53:50.248Z,99375.67
2019-03-10T14:56:21.051Z,99368.16
2019-03-10T14:58:52.153Z,99371.62
2019-03-10T15:01:23.196Z,99366.70
2019-03-10T15:03:54.174Z,99354.38
2019-03-10T15:06:25.595Z,99345.98
2019-03-10T15:08:56.511Z,99336.51
2019-03-10T15:11:28.117Z,99326.45
2019-03-10T15:13:59.102Z,99319.55
2019-03-10T15:16:30.129Z,99313.13
2019-03-10T15:19:02.269Z,99308.45
2019-03-10T15:21:34.507Z,99305.07
2019-03-10T15:24:06.562Z,99300.02
2019-03-10T15:26:45.699Z,99295.80
2019-03-10T15:29:14.481Z,99290.20
2019-03-10T15:31:46.203Z,99282.39
2019-03-10T15:34:17.617Z,99286.61
2019-03-10T15:36:48.836Z,99284.78
2019-03-10T15:39:19.730Z,99284.48
2019-03-10T15:41:50.831Z,99278.11
2019-03-10T15:44:21.666Z,99274.98
2019-03-10T15:46:52.505Z,99275.55
2019-03-10T15:49:24.536Z,99264.36
2019-03-10T15:51:55.849Z,99262.77
2019-03-10T15:54:27.183Z,99248.39
2019-03-10T15:56:58.617Z,99242.62
2019-03-10T15:59:29.914Z,99235.04
2019-03-10T16:02:01.600Z,99236.55
2019-03-10T16:04:32.564Z,99223.86
2019-03-10T16:07:03.673Z,99221.52
2019-03-10T16:09:34.834Z,99214.88
2019-03-10T16:12:06.523Z,99215.77
2019-03-10T16:14:37.797Z,99210.88
2019-03-10T16:17:08.956Z,99206.92
2019-03-10T16:19:40.526Z,99207.16
2019-03-10T16:22:11.393Z,99191.81
2019-03-10T16:24:42.638Z,99186.00
2019-03-10T16:27:13.788Z,99185.30
2019-03-10T16:29:45.360Z,99191.19
2019-03-10T16:32:16.528Z,99181.01
2019-03-10T16:34:47.810Z,99183.80
2019-03-10T16:37:19.176Z,99189.35
2019-03-10T16:39:50.277Z,99187.47
2019-03-10T16:42:21.086Z,99183.47
2019-03-10T16:44:52.946Z,99178.01
2019-03-10T16:47:24.094Z,99177.67
2019-03-10T16:49:56.506Z,99184.97
2019-03-10T16:52:27.514Z,99180.95
2019-03-10T16:54:58.943Z,99170.54
2019-03-10T16:57:30.103Z,99168.89
2019-03-10T17:00:01.067Z,99149.84
2019-03-10T17:02:33.785Z,99156.44
2019-03-10T17:05:07.935Z,99151.44
2019-03-10T17:07:39.279Z,99146.23
2019-03-10T17:10:13.675Z,99141.92
2019-03-10T17:12:44.816Z,99141.09
2019-03-10T17:15:19.012Z,99135.53
2019-03-10T17:17:50.169Z,99138.41
2019-03-10T17:20:22.111Z,99136.23
2019-03-10T17:22:53.171Z,99142.52
2019-03-10T17:25:24.845Z,99136.00
2019-03-10T17:27:56.674Z,99121.38
2019-03-10T17:30:27.878Z,99109.27
2019-03-10T17:32:58.682Z,99093.20
2019-03-10T17:35:29.313Z,99102.48
2019-03-10T17:38:00.958Z,99107.11
2019-03-10T17:40:31.652Z,99112.64
2019-03-10T17:43:02.440Z,99105.52
2019-03-10T17:45:32.872Z,99108.16
2019-03-10T17:48:03.680Z,99098.78
2019-03-10T17:50:34.482Z,99103.53
2019-03-10T17:53:07.378Z,99104.54
2019-03-10T17:55:37.878Z,99104.95
2019-03-10T17:58:08.518Z,99093.84
2019-03-10T18:00:40.240Z,99087.16
2019-03-10T18:03:10.800Z,99081.58
2019-03-10T18:05:41.678Z,99074.38
2019-03-10T18:08:12.121Z,99075.43
2019-03-10T18:10:42.783Z,99065.13
2019-03-10T18:13:14.199Z,99050.47
2019-03-10T18:15:44.935Z,99054.75
2019-03-10T18:18:15.730Z,99057.00
2019-03-10T18:20:46.681Z,99050.77
2019-03-10T18:23:17.739Z,99047.06
2019-03-10T18:25:48.571Z,99034.35
2019-03-10T18:28:31.890Z,99025.14
2019-03-10T18:31:06.242Z,99012.34
2019-03-10T18:33:43.467Z,99006.97
2019-03-10T18:36:18.635Z,98999.63
2019-03-10T18:38:49.801Z,99000.66
2019-03-10T18:41:20.779Z,98988.00
2019-03-10T18:43:52.002Z,98980.84
2019-03-10T18:46:24.161Z,98971.61
2019-03-10T18:48:54.881Z,98975.69
2019-03-10T18:51:25.762Z,98971.58
2019-03-10T18:53:56.466Z,98965.50
2019-03-10T18:56:27.075Z,98965.05
2019-03-10T18:58:58.175Z,98963.06
2019-03-10T19:01:28.761Z,98963.19
2019-03-10T19:03:59.561Z,98957.48
2019-03-10T19:06:31.562Z,98960.32
2019-03-10T19:09:02.328Z,98965.31
2019-03-10T19:11:35.245Z,98963.73
2019-03-10T19:14:06.011Z,98962.44
2019-03-10T19:16:36.521Z,98961.41
2019-03-10T19:19:08.002Z,98967.86
2019-03-10T19:21:38.649Z,98966.28
2019-03-10T19:24:09.100Z,98968.36
2019-03-10T19:26:39.771Z,98959.33
2019-03-10T19:29:10.362Z,98958.38
2019-03-10T19:31:41.201Z,98958.95
2019-03-10T19:34:11.921Z,98949.25
2019-03-10T19:36:56.526Z,98946.67
2019-03-10T19:39:19.082Z,98940.63
2019-03-10T19:41:49.778Z,98946.26
2019-03-10T19:44:21.308Z,98936.92
2019-03-10T19:46:52.979Z,98935.63
2019-03-10T19:49:23.730Z,98932.17
2019-03-10T19:51:54.322Z,98936.80
2019-03-10T19:54:24.787Z,98930.01
2019-03-10T19:56:55.770Z,98928.95
2019-03-10T19:59:26.692Z,98923.20
2019-03-10T20:01:57.515Z,98917.68
2019-03-10T20:04:28.289Z,98921.25
2019-03-10T20:06:58.899Z,98925.56
2019-03-10T20:09:29.364Z,98917.52
2019-03-10T20:12:00.114Z,98903.98
2019-03-10T20:14:30.852Z,98898.17
2019-03-10T20:17:05.185Z,98896.75
2019-03-10T20:19:37.361Z,98899.11
2019-03-10T20:22:10.266Z,98894.96
2019-03-10T20:24:41.364Z,98900.53
2019-03-10T20:27:11.893Z,98887.80
2019-03-10T20:29:42.899Z,98897.98
2019-03-10T20:32:14.423Z,98886.19
2019-03-10T20:34:45.106Z,98885.52
2019-03-10T20:37:16.076Z,98891.10
2019-03-10T20:39:46.786Z,98896.80
2019-03-10T20:42:17.605Z,98891.38
2019-03-10T20:44:48.363Z,98902.98
2019-03-10T20:47:19.030Z,98903.95
2019-03-10T20:49:49.760Z,98907.59
2019-03-10T20:52:20.749Z,98907.00
2019-03-10T20:54:51.395Z,98914.31
2019-03-10T20:57:22.689Z,98927.20
2019-03-10T21:00:00.753Z,98933.59
2019-03-10T21:02:30.844Z,98945.23
2019-03-10T21:05:02.405Z,98958.38
2019-03-10T21:07:34.075Z,98963.53
2019-03-10T21:10:07.564Z,98971.98
2019-03-10T21:12:41.774Z,98973.55
2019-03-10T21:15:14.366Z,98988.34
2019-03-10T21:17:45.894Z,98994.75
2019-03-10T21:20:19.338Z,99006.20
2019-03-10T21:22:50.896Z,99011.13
2019-03-10T21:25:23.946Z,99010.74
2019-03-10T21:27:54.777Z,99024.45
2019-03-10T21:30:28.568Z,99033.70
2019-03-10T21:32:59.853Z,99039.97
2019-03-10T21:35:33.104Z,99038.30
2019-03-10T21:38:03.701Z,99053.85
2019-03-10T21:40:34.875Z,99057.84
2019-03-10T21:43:05.414Z,99068.22
2019-03-10T21:45:36.906Z,99063.80
2019-03-10T21:48:09.107Z,99077.58
2019-03-10T21:50:40.073Z,99067.55
2019-03-10T21:53:10.805Z,99067.78
2019-03-10T21:55:41.733Z,99072.11
2019-03-10T21:58:13.453Z,99049.23
2019-03-10T22:00:45.488Z,99073.32
2019-03-10T22:03:16.964Z,99077.13
2019-03-10T22:05:47.435Z,99083.89
2019-03-10T22:08:18.644Z,99099.48
2019-03-10T22:10:49.503Z,99108.00
2019-03-10T22:13:21.065Z,99120.48
2019-03-10T22:15:53.630Z,99133.19
2019-03-10T22:18:24.384Z,99148.57
2019-03-10T22:20:55.748Z,99137.95
2019-03-10T22:23:26.309Z,99183.87
2019-03-10T22:25:57.985Z,99178.55
2019-03-10T22:28:30.257Z,99201.58
2019-03-10T22:31:01.732Z,99217.05
2019-03-10T22:33:33.132Z,99229.84
2019-03-10T22:36:04.413Z,99251.25
2019-03-10T22:38:35.225Z,99261.52
2019-03-10T22:41:06.808Z,99276.11
2019-03-10T22:43:38.575Z,99288.36
2019-03-10T22:46:10.368Z,99301.88
2019-03-10T22:48:42.344Z,99321.63
2019-03-10T22:51:13.734Z,99337.44
2019-03-10T22:53:46.345Z,99346.81
2019-03-10T22:56:17.946Z,99353.02
2019-03-10T22:58:50.654Z,99365.66
2019-03-10T23:01:22.176Z,99378.28
2019-03-10T23:03:53.108Z,99397.73
2019-03-10T23:06:24.369Z,99411.05
2019-03-10T23:08:56.187Z,99413.02
2019-03-10T23:11:27.137Z,99431.10
2019-03-10T23:13:58.304Z,99442.25
2019-03-10T23:16:29.751Z,99454.28
2019-03-10T23:19:01.175Z,99466.34
2019-03-10T23:21:32.367Z,99479.38
2019-03-10T23:24:03.849Z,99487.44
2019-03-10T23:26:35.110Z,99499.89
2019-03-10T23:29:06.626Z,99513.41
2019-03-10T23:31:42.181Z,99527.12
2019-03-10T23:34:15.020Z,99502.83
2019-03-10T23:36:46.079Z,99502.83
2019-03-10T23:39:17.419Z,99553.38
2019-03-10T23:41:48.733Z,99544.88
2019-03-10T23:44:20.157Z,99565.61
2019-03-10T23:46:52.366Z,99571.14
2019-03-10T23:49:23.262Z,99572.83
2019-03-10T23:51:54.923Z,99580.81
2019-03-10T23:54:26.647Z,99595.21
2019-03-10T23:56:59.344Z,99617.35
2019-03-10T23:59:30.337Z,99623.97
